sensor_id;sensor_type;location;lat;lon;timestamp;temperature;humidity
41447;DHT22;27185;52.040;4.490;2023-08-17T00:01:04;20.40;99.90
41447;DHT22;27185;52.040;4.490;2023-08-17T00:03:49;20.30;99.90
41447;DHT22;27185;52.040;4.490;2023-08-17T00:06:35;20.30;99.90
41447;DHT22;27185;52.040;4.490;2023-08-17T00:09:21;20.30;99.90
41447;DHT22;27185;52.040;4.490;2023-08-17T00:12:08;20.20;99.90
41447;DHT22;27185;52.040;4.490;2023-08-17T00:14:54;20.30;99.90
41447;DHT22;27185;52.040;4.490;2023-08-17T00:17:40;20.20;99.90
41447;DHT22;27185;52.040;4.490;2023-08-17T00:20:25;20.20;99.90
41447;DHT22;27185;52.040;4.490;2023-08-17T00:23:11;20.20;99.90
41447;DHT22;27185;52.040;4.490;2023-08-17T00:25:56;20.20;99.90
41447;DHT22;27185;52.040;4.490;2023-08-17T00:28:42;20.20;99.90
41447;DHT22;27185;52.040;4.490;2023-08-17T00:31:27;20.20;99.90
41447;DHT22;27185;52.040;4.490;2023-08-17T00:34:13;20.20;99.90
41447;DHT22;27185;52.040;4.490;2023-08-17T00:36:59;20.20;99.90
41447;DHT22;27185;52.040;4.490;2023-08-17T00:39:44;20.20;99.90
41447;DHT22;27185;52.040;4.490;2023-08-17T00:42:30;20.20;99.90
41447;DHT22;27185;52.040;4.490;2023-08-17T00:45:16;20.10;99.90
41447;DHT22;27185;52.040;4.490;2023-08-17T00:48:01;20.10;99.90
41447;DHT22;27185;52.040;4.490;2023-08-17T00:50:49;20.00;99.90
41447;DHT22;27185;52.040;4.490;2023-08-17T00:53:35;20.00;99.90
41447;DHT22;27185;52.040;4.490;2023-08-17T00:56:21;20.00;99.90
41447;DHT22;27185;52.040;4.490;2023-08-17T00:59:07;19.90;99.90
41447;DHT22;27185;52.040;4.490;2023-08-17T01:01:52;19.90;99.90
41447;DHT22;27185;52.040;4.490;2023-08-17T01:04:38;19.90;99.90
41447;DHT22;27185;52.040;4.490;2023-08-17T01:07:24;19.80;99.90
41447;DHT22;27185;52.040;4.490;2023-08-17T01:10:10;19.80;99.90
41447;DHT22;27185;52.040;4.490;2023-08-17T01:13:10;19.80;99.90
41447;DHT22;27185;52.040;4.490;2023-08-17T01:15:58;19.80;99.90
41447;DHT22;27185;52.040;4.490;2023-08-17T01:18:46;19.80;99.90
41447;DHT22;27185;52.040;4.490;2023-08-17T01:21:45;19.80;99.90
41447;DHT22;27185;52.040;4.490;2023-08-17T01:24:33;19.80;99.90
41447;DHT22;27185;52.040;4.490;2023-08-17T01:27:19;19.80;99.90
41447;DHT22;27185;52.040;4.490;2023-08-17T01:30:06;19.80;99.90
41447;DHT22;27185;52.040;4.490;2023-08-17T01:33:03;19.80;99.90
41447;DHT22;27185;52.040;4.490;2023-08-17T01:38:46;19.70;99.90
41447;DHT22;27185;52.040;4.490;2023-08-17T01:41:33;19.70;99.90
41447;DHT22;27185;52.040;4.490;2023-08-17T01:44:19;19.70;99.90
41447;DHT22;27185;52.040;4.490;2023-08-17T01:47:04;19.70;99.90
41447;DHT22;27185;52.040;4.490;2023-08-17T01:49:50;19.60;99.90
41447;DHT22;27185;52.040;4.490;2023-08-17T01:52:35;19.60;99.90
41447;DHT22;27185;52.040;4.490;2023-08-17T01:55:22;19.60;99.90
41447;DHT22;27185;52.040;4.490;2023-08-17T01:58:08;19.60;99.90
41447;DHT22;27185;52.040;4.490;2023-08-17T02:00:54;19.60;99.90
41447;DHT22;27185;52.040;4.490;2023-08-17T02:03:39;19.60;99.90
41447;DHT22;27185;52.040;4.490;2023-08-17T02:06:25;19.50;99.90
41447;DHT22;27185;52.040;4.490;2023-08-17T02:09:10;19.50;99.90
41447;DHT22;27185;52.040;4.490;2023-08-17T02:11:56;19.50;99.90
41447;DHT22;27185;52.040;4.490;2023-08-17T02:14:42;19.50;99.90
41447;DHT22;27185;52.040;4.490;2023-08-17T02:17:27;19.40;99.90
41447;DHT22;27185;52.040;4.490;2023-08-17T02:20:13;19.40;99.90
41447;DHT22;27185;52.040;4.490;2023-08-17T02:22:59;19.40;99.90
41447;DHT22;27185;52.040;4.490;2023-08-17T02:25:45;19.40;99.90
41447;DHT22;27185;52.040;4.490;2023-08-17T02:28:30;19.30;99.90
41447;DHT22;27185;52.040;4.490;2023-08-17T02:31:16;19.30;99.90
41447;DHT22;27185;52.040;4.490;2023-08-17T02:34:01;19.20;99.90
41447;DHT22;27185;52.040;4.490;2023-08-17T02:36:50;19.20;99.90
41447;DHT22;27185;52.040;4.490;2023-08-17T02:39:36;19.20;99.90
41447;DHT22;27185;52.040;4.490;2023-08-17T02:42:22;19.10;99.90
41447;DHT22;27185;52.040;4.490;2023-08-17T02:45:08;19.10;99.90
41447;DHT22;27185;52.040;4.490;2023-08-17T02:47:54;19.10;99.90
41447;DHT22;27185;52.040;4.490;2023-08-17T02:50:39;19.10;99.90
41447;DHT22;27185;52.040;4.490;2023-08-17T02:53:25;19.10;99.90
41447;DHT22;27185;52.040;4.490;2023-08-17T02:56:11;19.00;99.90
41447;DHT22;27185;52.040;4.490;2023-08-17T02:58:57;19.00;99.90
41447;DHT22;27185;52.040;4.490;2023-08-17T03:01:44;19.00;99.90
41447;DHT22;27185;52.040;4.490;2023-08-17T03:04:30;19.00;99.90
41447;DHT22;27185;52.040;4.490;2023-08-17T03:07:16;19.00;99.90
41447;DHT22;27185;52.040;4.490;2023-08-17T03:10:01;19.10;99.90
41447;DHT22;27185;52.040;4.490;2023-08-17T03:12:47;19.10;99.90
41447;DHT22;27185;52.040;4.490;2023-08-17T03:15:32;19.10;99.90
41447;DHT22;27185;52.040;4.490;2023-08-17T03:18:18;19.10;99.90
41447;DHT22;27185;52.040;4.490;2023-08-17T03:21:03;19.10;99.90
41447;DHT22;27185;52.040;4.490;2023-08-17T03:23:49;19.10;99.90
41447;DHT22;27185;52.040;4.490;2023-08-17T03:26:35;19.10;99.90
41447;DHT22;27185;52.040;4.490;2023-08-17T03:29:20;19.10;99.90
41447;DHT22;27185;52.040;4.490;2023-08-17T03:32:06;19.10;99.90
41447;DHT22;27185;52.040;4.490;2023-08-17T03:34:51;19.10;99.90
41447;DHT22;27185;52.040;4.490;2023-08-17T03:37:37;19.10;99.90
41447;DHT22;27185;52.040;4.490;2023-08-17T03:40:24;19.10;99.90
41447;DHT22;27185;52.040;4.490;2023-08-17T03:43:10;19.10;99.90
41447;DHT22;27185;52.040;4.490;2023-08-17T03:45:56;19.00;99.90
41447;DHT22;27185;52.040;4.490;2023-08-17T03:48:41;19.10;99.90
41447;DHT22;27185;52.040;4.490;2023-08-17T03:51:27;19.00;99.90
41447;DHT22;27185;52.040;4.490;2023-08-17T03:54:12;19.00;99.90
41447;DHT22;27185;52.040;4.490;2023-08-17T03:56:58;18.90;99.90
41447;DHT22;27185;52.040;4.490;2023-08-17T03:59:44;18.90;99.90
41447;DHT22;27185;52.040;4.490;2023-08-17T04:02:29;18.90;99.90
41447;DHT22;27185;52.040;4.490;2023-08-17T04:05:15;18.80;99.90
41447;DHT22;27185;52.040;4.490;2023-08-17T04:08:01;18.80;99.90
41447;DHT22;27185;52.040;4.490;2023-08-17T04:10:49;18.80;99.90
41447;DHT22;27185;52.040;4.490;2023-08-17T04:13:35;18.80;99.90
41447;DHT22;27185;52.040;4.490;2023-08-17T04:16:20;18.70;99.90
41447;DHT22;27185;52.040;4.490;2023-08-17T04:19:06;18.70;99.90
41447;DHT22;27185;52.040;4.490;2023-08-17T04:21:52;18.70;99.90
41447;DHT22;27185;52.040;4.490;2023-08-17T04:24:37;18.70;99.90
41447;DHT22;27185;52.040;4.490;2023-08-17T04:27:23;18.70;99.90
41447;DHT22;27185;52.040;4.490;2023-08-17T04:30:09;18.70;99.90
41447;DHT22;27185;52.040;4.490;2023-08-17T04:32:56;18.60;99.90
41447;DHT22;27185;52.040;4.490;2023-08-17T04:35:42;18.70;99.90
41447;DHT22;27185;52.040;4.490;2023-08-17T04:38:31;18.70;99.90
41447;DHT22;27185;52.040;4.490;2023-08-17T04:41:17;18.70;99.90
41447;DHT22;27185;52.040;4.490;2023-08-17T04:44:03;18.70;99.90
41447;DHT22;27185;52.040;4.490;2023-08-17T04:46:49;18.80;99.90
41447;DHT22;27185;52.040;4.490;2023-08-17T04:49:36;18.80;99.90
41447;DHT22;27185;52.040;4.490;2023-08-17T04:52:22;18.90;99.90
41447;DHT22;27185;52.040;4.490;2023-08-17T04:55:07;18.90;99.90
41447;DHT22;27185;52.040;4.490;2023-08-17T04:57:53;18.90;99.90
41447;DHT22;27185;52.040;4.490;2023-08-17T05:00:39;19.00;99.90
41447;DHT22;27185;52.040;4.490;2023-08-17T05:03:24;19.10;99.90
41447;DHT22;27185;52.040;4.490;2023-08-17T05:06:10;19.10;99.90
41447;DHT22;27185;52.040;4.490;2023-08-17T05:08:56;19.20;99.90
41447;DHT22;27185;52.040;4.490;2023-08-17T05:11:42;19.20;99.90
41447;DHT22;27185;52.040;4.490;2023-08-17T05:14:27;19.30;99.90
41447;DHT22;27185;52.040;4.490;2023-08-17T05:17:13;19.30;99.90
41447;DHT22;27185;52.040;4.490;2023-08-17T05:19:59;19.30;99.90
41447;DHT22;27185;52.040;4.490;2023-08-17T05:22:46;19.30;99.90
41447;DHT22;27185;52.040;4.490;2023-08-17T05:25:32;19.30;99.90
41447;DHT22;27185;52.040;4.490;2023-08-17T05:28:18;19.30;99.90
41447;DHT22;27185;52.040;4.490;2023-08-17T05:31:08;19.30;99.90
41447;DHT22;27185;52.040;4.490;2023-08-17T05:33:53;19.40;99.90
41447;DHT22;27185;52.040;4.490;2023-08-17T05:36:39;19.30;99.90
41447;DHT22;27185;52.040;4.490;2023-08-17T05:39:26;19.30;99.90
41447;DHT22;27185;52.040;4.490;2023-08-17T05:42:11;19.30;99.90
41447;DHT22;27185;52.040;4.490;2023-08-17T05:44:57;19.30;99.90
41447;DHT22;27185;52.040;4.490;2023-08-17T05:47:43;19.30;99.90
41447;DHT22;27185;52.040;4.490;2023-08-17T05:50:30;19.30;99.90
41447;DHT22;27185;52.040;4.490;2023-08-17T05:53:16;19.30;99.90
41447;DHT22;27185;52.040;4.490;2023-08-17T05:56:01;19.30;99.90
41447;DHT22;27185;52.040;4.490;2023-08-17T05:58:48;19.40;99.90
41447;DHT22;27185;52.040;4.490;2023-08-17T06:01:34;19.40;99.90
41447;DHT22;27185;52.040;4.490;2023-08-17T06:04:21;19.50;99.90
41447;DHT22;27185;52.040;4.490;2023-08-17T06:07:06;19.60;99.90
41447;DHT22;27185;52.040;4.490;2023-08-17T06:09:52;19.60;99.90
41447;DHT22;27185;52.040;4.490;2023-08-17T06:12:38;19.70;99.90
41447;DHT22;27185;52.040;4.490;2023-08-17T06:15:24;19.80;99.90
41447;DHT22;27185;52.040;4.490;2023-08-17T06:18:09;19.90;99.90
41447;DHT22;27185;52.040;4.490;2023-08-17T06:20:55;20.00;99.90
41447;DHT22;27185;52.040;4.490;2023-08-17T06:23:41;20.00;99.90
41447;DHT22;27185;52.040;4.490;2023-08-17T06:26:26;20.10;99.90
41447;DHT22;27185;52.040;4.490;2023-08-17T06:29:12;20.20;99.90
41447;DHT22;27185;52.040;4.490;2023-08-17T06:31:58;20.20;99.90
41447;DHT22;27185;52.040;4.490;2023-08-17T06:34:43;20.30;99.90
41447;DHT22;27185;52.040;4.490;2023-08-17T06:37:29;20.30;99.90
41447;DHT22;27185;52.040;4.490;2023-08-17T06:40:15;20.40;99.90
41447;DHT22;27185;52.040;4.490;2023-08-17T06:43:01;20.40;99.90
41447;DHT22;27185;52.040;4.490;2023-08-17T06:45:47;20.40;99.90
41447;DHT22;27185;52.040;4.490;2023-08-17T06:48:33;20.40;99.90
41447;DHT22;27185;52.040;4.490;2023-08-17T06:51:18;20.50;99.90
41447;DHT22;27185;52.040;4.490;2023-08-17T06:54:06;20.50;99.90
41447;DHT22;27185;52.040;4.490;2023-08-17T06:56:52;20.60;99.90
41447;DHT22;27185;52.040;4.490;2023-08-17T06:59:37;20.70;99.90
41447;DHT22;27185;52.040;4.490;2023-08-17T07:02:23;20.80;99.90
41447;DHT22;27185;52.040;4.490;2023-08-17T07:05:08;20.80;99.90
41447;DHT22;27185;52.040;4.490;2023-08-17T07:07:55;20.80;99.90
41447;DHT22;27185;52.040;4.490;2023-08-17T07:10:42;20.90;99.90
41447;DHT22;27185;52.040;4.490;2023-08-17T07:13:28;21.00;99.90
41447;DHT22;27185;52.040;4.490;2023-08-17T07:16:14;21.00;99.90
41447;DHT22;27185;52.040;4.490;2023-08-17T07:18:59;21.10;99.90
41447;DHT22;27185;52.040;4.490;2023-08-17T07:21:45;21.10;99.90
41447;DHT22;27185;52.040;4.490;2023-08-17T07:24:31;21.20;99.90
41447;DHT22;27185;52.040;4.490;2023-08-17T07:27:16;21.30;99.90
41447;DHT22;27185;52.040;4.490;2023-08-17T07:30:03;21.40;99.90
41447;DHT22;27185;52.040;4.490;2023-08-17T07:32:49;21.50;99.90
41447;DHT22;27185;52.040;4.490;2023-08-17T07:35:34;21.60;99.90
41447;DHT22;27185;52.040;4.490;2023-08-17T07:38:20;21.70;99.90
41447;DHT22;27185;52.040;4.490;2023-08-17T07:41:06;21.80;99.90
41447;DHT22;27185;52.040;4.490;2023-08-17T07:43:51;21.90;99.90
41447;DHT22;27185;52.040;4.490;2023-08-17T07:46:37;22.00;99.90
41447;DHT22;27185;52.040;4.490;2023-08-17T07:49:23;22.10;99.90
41447;DHT22;27185;52.040;4.490;2023-08-17T07:52:09;22.20;99.90
41447;DHT22;27185;52.040;4.490;2023-08-17T07:54:55;22.20;99.90
41447;DHT22;27185;52.040;4.490;2023-08-17T07:57:41;22.20;99.90
41447;DHT22;27185;52.040;4.490;2023-08-17T08:00:26;22.20;99.90
41447;DHT22;27185;52.040;4.490;2023-08-17T08:03:12;22.20;99.90
41447;DHT22;27185;52.040;4.490;2023-08-17T08:05:57;22.20;99.90
41447;DHT22;27185;52.040;4.490;2023-08-17T08:08:43;22.10;99.90
41447;DHT22;27185;52.040;4.490;2023-08-17T08:11:28;22.10;99.90
41447;DHT22;27185;52.040;4.490;2023-08-17T08:14:16;22.00;99.90
41447;DHT22;27185;52.040;4.490;2023-08-17T08:17:02;22.00;99.90
41447;DHT22;27185;52.040;4.490;2023-08-17T08:19:48;22.00;99.90
41447;DHT22;27185;52.040;4.490;2023-08-17T08:22:33;22.10;99.90
41447;DHT22;27185;52.040;4.490;2023-08-17T08:25:19;22.10;99.90
41447;DHT22;27185;52.040;4.490;2023-08-17T08:28:05;22.10;99.90
41447;DHT22;27185;52.040;4.490;2023-08-17T08:30:51;22.20;99.90
41447;DHT22;27185;52.040;4.490;2023-08-17T08:33:36;22.20;99.90
41447;DHT22;27185;52.040;4.490;2023-08-17T08:36:22;22.30;99.90
41447;DHT22;27185;52.040;4.490;2023-08-17T08:39:08;22.30;99.90
41447;DHT22;27185;52.040;4.490;2023-08-17T08:41:54;22.40;99.90
41447;DHT22;27185;52.040;4.490;2023-08-17T08:44:40;22.50;99.90
41447;DHT22;27185;52.040;4.490;2023-08-17T08:47:26;22.50;99.90
41447;DHT22;27185;52.040;4.490;2023-08-17T08:50:20;22.60;99.90
41447;DHT22;27185;52.040;4.490;2023-08-17T08:53:13;22.60;99.90
41447;DHT22;27185;52.040;4.490;2023-08-17T08:56:00;22.70;99.90
41447;DHT22;27185;52.040;4.490;2023-08-17T08:58:47;22.70;99.90
41447;DHT22;27185;52.040;4.490;2023-08-17T09:01:33;22.80;99.90
41447;DHT22;27185;52.040;4.490;2023-08-17T09:04:19;22.90;99.90
41447;DHT22;27185;52.040;4.490;2023-08-17T09:07:06;23.00;99.90
41447;DHT22;27185;52.040;4.490;2023-08-17T09:09:52;23.00;99.90
41447;DHT22;27185;52.040;4.490;2023-08-17T09:12:39;23.10;99.90
41447;DHT22;27185;52.040;4.490;2023-08-17T09:15:26;23.10;99.90
41447;DHT22;27185;52.040;4.490;2023-08-17T09:18:11;23.20;99.90
41447;DHT22;27185;52.040;4.490;2023-08-17T09:20:57;23.20;99.90
41447;DHT22;27185;52.040;4.490;2023-08-17T09:23:43;23.30;99.90
41447;DHT22;27185;52.040;4.490;2023-08-17T09:26:31;23.40;99.90
41447;DHT22;27185;52.040;4.490;2023-08-17T09:29:19;23.50;99.90
41447;DHT22;27185;52.040;4.490;2023-08-17T09:32:06;23.60;99.90
41447;DHT22;27185;52.040;4.490;2023-08-17T09:34:52;23.70;99.90
41447;DHT22;27185;52.040;4.490;2023-08-17T09:37:39;23.80;99.90
41447;DHT22;27185;52.040;4.490;2023-08-17T09:40:28;23.90;99.90
41447;DHT22;27185;52.040;4.490;2023-08-17T09:43:17;23.90;99.80
41447;DHT22;27185;52.040;4.490;2023-08-17T09:46:03;24.00;99.60
41447;DHT22;27185;52.040;4.490;2023-08-17T09:48:49;24.10;99.70
41447;DHT22;27185;52.040;4.490;2023-08-17T09:51:34;24.20;99.70
41447;DHT22;27185;52.040;4.490;2023-08-17T09:54:24;24.40;99.40
41447;DHT22;27185;52.040;4.490;2023-08-17T09:57:16;24.60;99.20
41447;DHT22;27185;52.040;4.490;2023-08-17T10:00:02;24.80;98.40
41447;DHT22;27185;52.040;4.490;2023-08-17T10:02:51;24.90;98.40
41447;DHT22;27185;52.040;4.490;2023-08-17T10:05:38;25.10;98.30
41447;DHT22;27185;52.040;4.490;2023-08-17T10:08:27;25.20;97.60
41447;DHT22;27185;52.040;4.490;2023-08-17T10:11:18;25.10;97.40
41447;DHT22;27185;52.040;4.490;2023-08-17T10:14:11;25.10;97.30
41447;DHT22;27185;52.040;4.490;2023-08-17T10:17:07;25.00;97.60
41447;DHT22;27185;52.040;4.490;2023-08-17T10:19:59;25.00;97.40
41447;DHT22;27185;52.040;4.490;2023-08-17T10:23:17;25.10;97.70
41447;DHT22;27185;52.040;4.490;2023-08-17T10:26:04;25.20;97.60
41447;DHT22;27185;52.040;4.490;2023-08-17T10:28:51;25.40;97.20
41447;DHT22;27185;52.040;4.490;2023-08-17T10:31:38;25.60;97.30
41447;DHT22;27185;52.040;4.490;2023-08-17T10:34:24;25.80;96.90
41447;DHT22;27185;52.040;4.490;2023-08-17T10:37:11;26.00;96.40
41447;DHT22;27185;52.040;4.490;2023-08-17T10:39:57;26.20;96.40
41447;DHT22;27185;52.040;4.490;2023-08-17T10:42:43;26.50;96.10
41447;DHT22;27185;52.040;4.490;2023-08-17T10:45:33;26.50;95.80
41447;DHT22;27185;52.040;4.490;2023-08-17T10:48:27;26.40;95.70
41447;DHT22;27185;52.040;4.490;2023-08-17T10:51:13;26.30;95.50
41447;DHT22;27185;52.040;4.490;2023-08-17T10:54:02;26.30;95.40
41447;DHT22;27185;52.040;4.490;2023-08-17T10:56:48;26.30;95.80
41447;DHT22;27185;52.040;4.490;2023-08-17T10:59:34;26.20;96.10
41447;DHT22;27185;52.040;4.490;2023-08-17T11:02:22;26.40;96.30
41447;DHT22;27185;52.040;4.490;2023-08-17T11:05:07;26.50;96.10
41447;DHT22;27185;52.040;4.490;2023-08-17T11:07:53;26.70;95.50
41447;DHT22;27185;52.040;4.490;2023-08-17T11:10:39;26.80;95.10
41447;DHT22;27185;52.040;4.490;2023-08-17T11:13:31;26.80;94.90
41447;DHT22;27185;52.040;4.490;2023-08-17T11:16:17;26.90;95.00
41447;DHT22;27185;52.040;4.490;2023-08-17T11:19:06;27.00;94.70
41447;DHT22;27185;52.040;4.490;2023-08-17T11:21:51;27.10;94.80
41447;DHT22;27185;52.040;4.490;2023-08-17T11:24:38;27.10;94.70
41447;DHT22;27185;52.040;4.490;2023-08-17T11:27:30;27.30;94.40
41447;DHT22;27185;52.040;4.490;2023-08-17T11:30:16;27.30;94.30
41447;DHT22;27185;52.040;4.490;2023-08-17T11:33:01;27.30;94.40
41447;DHT22;27185;52.040;4.490;2023-08-17T11:35:47;27.30;94.60
41447;DHT22;27185;52.040;4.490;2023-08-17T11:38:37;27.50;94.20
41447;DHT22;27185;52.040;4.490;2023-08-17T11:41:26;27.70;93.80
41447;DHT22;27185;52.040;4.490;2023-08-17T11:44:12;27.80;93.70
41447;DHT22;27185;52.040;4.490;2023-08-17T11:46:58;28.00;93.80
41447;DHT22;27185;52.040;4.490;2023-08-17T11:49:47;28.00;93.30
41447;DHT22;27185;52.040;4.490;2023-08-17T11:52:34;28.00;93.20
41447;DHT22;27185;52.040;4.490;2023-08-17T11:55:22;27.90;92.90
41447;DHT22;27185;52.040;4.490;2023-08-17T11:58:07;27.90;93.00
41447;DHT22;27185;52.040;4.490;2023-08-17T12:00:53;27.70;93.10
41447;DHT22;27185;52.040;4.490;2023-08-17T12:03:39;27.60;93.10
41447;DHT22;27185;52.040;4.490;2023-08-17T12:06:25;27.50;93.20
41447;DHT22;27185;52.040;4.490;2023-08-17T12:09:11;27.50;93.40
41447;DHT22;27185;52.040;4.490;2023-08-17T12:12:00;27.50;93.40
41447;DHT22;27185;52.040;4.490;2023-08-17T12:14:47;27.40;93.30
41447;DHT22;27185;52.040;4.490;2023-08-17T12:17:33;27.20;93.50
41447;DHT22;27185;52.040;4.490;2023-08-17T12:20:19;27.10;93.40
41447;DHT22;27185;52.040;4.490;2023-08-17T12:23:05;27.00;93.80
41447;DHT22;27185;52.040;4.490;2023-08-17T12:25:54;26.90;93.80
41447;DHT22;27185;52.040;4.490;2023-08-17T12:28:40;26.80;93.90
41447;DHT22;27185;52.040;4.490;2023-08-17T12:31:29;26.80;94.20
41447;DHT22;27185;52.040;4.490;2023-08-17T12:34:14;26.90;94.30
41447;DHT22;27185;52.040;4.490;2023-08-17T12:37:00;27.00;94.30
41447;DHT22;27185;52.040;4.490;2023-08-17T12:39:46;27.10;94.40
41447;DHT22;27185;52.040;4.490;2023-08-17T12:42:32;27.10;94.40
41447;DHT22;27185;52.040;4.490;2023-08-17T12:45:18;27.20;94.20
41447;DHT22;27185;52.040;4.490;2023-08-17T12:48:03;27.30;94.10
41447;DHT22;27185;52.040;4.490;2023-08-17T12:50:49;27.30;93.60
41447;DHT22;27185;52.040;4.490;2023-08-17T12:53:35;27.20;93.50
41447;DHT22;27185;52.040;4.490;2023-08-17T12:56:20;27.10;93.40
41447;DHT22;27185;52.040;4.490;2023-08-17T12:59:06;26.90;93.50
41447;DHT22;27185;52.040;4.490;2023-08-17T13:01:51;26.80;93.70
41447;DHT22;27185;52.040;4.490;2023-08-17T13:04:37;26.70;93.90
41447;DHT22;27185;52.040;4.490;2023-08-17T13:07:23;26.50;94.10
41447;DHT22;27185;52.040;4.490;2023-08-17T13:10:08;26.50;94.10
41447;DHT22;27185;52.040;4.490;2023-08-17T13:12:55;26.40;94.10
41447;DHT22;27185;52.040;4.490;2023-08-17T13:15:44;26.20;94.20
41447;DHT22;27185;52.040;4.490;2023-08-17T13:18:30;26.20;94.40
41447;DHT22;27185;52.040;4.490;2023-08-17T13:21:15;26.10;94.50
41447;DHT22;27185;52.040;4.490;2023-08-17T13:24:03;26.10;94.80
41447;DHT22;27185;52.040;4.490;2023-08-17T13:26:49;26.10;94.70
41447;DHT22;27185;52.040;4.490;2023-08-17T13:29:38;26.10;94.70
41447;DHT22;27185;52.040;4.490;2023-08-17T13:32:25;26.10;94.80
41447;DHT22;27185;52.040;4.490;2023-08-17T13:35:11;26.10;94.70
41447;DHT22;27185;52.040;4.490;2023-08-17T13:37:57;26.10;94.80
41447;DHT22;27185;52.040;4.490;2023-08-17T13:40:45;26.10;94.70
41447;DHT22;27185;52.040;4.490;2023-08-17T13:43:31;26.10;94.80
41447;DHT22;27185;52.040;4.490;2023-08-17T13:46:24;26.10;94.90
41447;DHT22;27185;52.040;4.490;2023-08-17T13:49:12;26.10;95.10
41447;DHT22;27185;52.040;4.490;2023-08-17T13:51:58;26.20;95.10
41447;DHT22;27185;52.040;4.490;2023-08-17T13:54:56;26.20;95.00
41447;DHT22;27185;52.040;4.490;2023-08-17T13:57:47;26.20;95.00
41447;DHT22;27185;52.040;4.490;2023-08-17T14:00:33;26.30;95.10
41447;DHT22;27185;52.040;4.490;2023-08-17T14:03:20;26.40;95.10
41447;DHT22;27185;52.040;4.490;2023-08-17T14:06:06;26.50;94.70
41447;DHT22;27185;52.040;4.490;2023-08-17T14:08:51;26.50;94.60
41447;DHT22;27185;52.040;4.490;2023-08-17T14:11:37;26.50;94.70
41447;DHT22;27185;52.040;4.490;2023-08-17T14:14:23;26.50;94.70
41447;DHT22;27185;52.040;4.490;2023-08-17T14:17:08;26.40;94.80
41447;DHT22;27185;52.040;4.490;2023-08-17T14:19:54;26.40;94.70
41447;DHT22;27185;52.040;4.490;2023-08-17T14:22:41;26.40;94.60
41447;DHT22;27185;52.040;4.490;2023-08-17T14:25:26;26.30;94.60
41447;DHT22;27185;52.040;4.490;2023-08-17T14:28:13;26.20;94.50
41447;DHT22;27185;52.040;4.490;2023-08-17T14:30:59;26.10;94.60
41447;DHT22;27185;52.040;4.490;2023-08-17T14:33:44;26.00;94.70
41447;DHT22;27185;52.040;4.490;2023-08-17T14:36:33;25.90;94.90
41447;DHT22;27185;52.040;4.490;2023-08-17T14:39:19;25.90;94.90
41447;DHT22;27185;52.040;4.490;2023-08-17T14:42:04;25.70;94.90
41447;DHT22;27185;52.040;4.490;2023-08-17T14:44:50;25.70;95.10
41447;DHT22;27185;52.040;4.490;2023-08-17T14:47:36;25.60;95.20
41447;DHT22;27185;52.040;4.490;2023-08-17T14:50:21;25.60;95.40
41447;DHT22;27185;52.040;4.490;2023-08-17T14:53:07;25.50;95.50
41447;DHT22;27185;52.040;4.490;2023-08-17T14:55:54;25.50;95.60
41447;DHT22;27185;52.040;4.490;2023-08-17T14:58:40;25.40;95.60
41447;DHT22;27185;52.040;4.490;2023-08-17T15:01:25;25.50;96.00
41447;DHT22;27185;52.040;4.490;2023-08-17T15:04:11;25.50;96.00
41447;DHT22;27185;52.040;4.490;2023-08-17T15:06:56;25.60;95.90
41447;DHT22;27185;52.040;4.490;2023-08-17T15:09:42;25.60;95.70
41447;DHT22;27185;52.040;4.490;2023-08-17T15:12:27;25.60;95.60
41447;DHT22;27185;52.040;4.490;2023-08-17T15:15:13;25.50;95.60
41447;DHT22;27185;52.040;4.490;2023-08-17T15:17:59;25.50;95.50
41447;DHT22;27185;52.040;4.490;2023-08-17T15:20:44;25.40;95.60
41447;DHT22;27185;52.040;4.490;2023-08-17T15:23:30;25.20;95.70
41447;DHT22;27185;52.040;4.490;2023-08-17T15:26:16;25.10;95.80
41447;DHT22;27185;52.040;4.490;2023-08-17T15:29:02;25.10;96.00
41447;DHT22;27185;52.040;4.490;2023-08-17T15:31:47;25.00;96.10
41447;DHT22;27185;52.040;4.490;2023-08-17T15:34:33;24.90;96.20
41447;DHT22;27185;52.040;4.490;2023-08-17T15:37:18;24.90;96.30
41447;DHT22;27185;52.040;4.490;2023-08-17T15:40:04;24.90;96.30
41447;DHT22;27185;52.040;4.490;2023-08-17T15:42:50;24.80;96.30
41447;DHT22;27185;52.040;4.490;2023-08-17T15:45:36;24.70;96.50
41447;DHT22;27185;52.040;4.490;2023-08-17T15:48:22;24.60;96.60
41447;DHT22;27185;52.040;4.490;2023-08-17T15:51:08;24.50;96.70
41447;DHT22;27185;52.040;4.490;2023-08-17T15:53:57;24.40;96.80
41447;DHT22;27185;52.040;4.490;2023-08-17T15:56:42;24.40;97.00
41447;DHT22;27185;52.040;4.490;2023-08-17T15:59:28;24.40;97.00
41447;DHT22;27185;52.040;4.490;2023-08-17T16:02:13;24.40;97.20
41447;DHT22;27185;52.040;4.490;2023-08-17T16:04:59;24.30;97.20
41447;DHT22;27185;52.040;4.490;2023-08-17T16:07:44;24.30;97.30
41447;DHT22;27185;52.040;4.490;2023-08-17T16:10:30;24.40;97.50
41447;DHT22;27185;52.040;4.490;2023-08-17T16:13:16;24.40;97.30
41447;DHT22;27185;52.040;4.490;2023-08-17T16:16:02;24.40;97.30
41447;DHT22;27185;52.040;4.490;2023-08-17T16:18:47;24.40;97.30
41447;DHT22;27185;52.040;4.490;2023-08-17T16:21:33;24.40;97.30
41447;DHT22;27185;52.040;4.490;2023-08-17T16:24:18;24.30;97.30
41447;DHT22;27185;52.040;4.490;2023-08-17T16:27:04;24.30;97.30
41447;DHT22;27185;52.040;4.490;2023-08-17T16:29:50;24.20;97.40
41447;DHT22;27185;52.040;4.490;2023-08-17T16:32:35;24.20;97.50
41447;DHT22;27185;52.040;4.490;2023-08-17T16:35:22;24.20;97.50
41447;DHT22;27185;52.040;4.490;2023-08-17T16:38:07;24.10;97.60
41447;DHT22;27185;52.040;4.490;2023-08-17T16:40:53;24.10;97.60
41447;DHT22;27185;52.040;4.490;2023-08-17T16:43:38;24.10;97.70
41447;DHT22;27185;52.040;4.490;2023-08-17T16:46:24;24.00;97.70
41447;DHT22;27185;52.040;4.490;2023-08-17T16:49:10;24.00;97.80
41447;DHT22;27185;52.040;4.490;2023-08-17T16:51:55;24.00;97.90
41447;DHT22;27185;52.040;4.490;2023-08-17T16:54:41;23.90;97.90
41447;DHT22;27185;52.040;4.490;2023-08-17T16:57:26;23.90;98.00
41447;DHT22;27185;52.040;4.490;2023-08-17T17:00:12;23.90;98.10
41447;DHT22;27185;52.040;4.490;2023-08-17T17:03:01;23.90;98.10
41447;DHT22;27185;52.040;4.490;2023-08-17T17:05:46;23.90;98.20
41447;DHT22;27185;52.040;4.490;2023-08-17T17:08:32;23.90;98.40
41447;DHT22;27185;52.040;4.490;2023-08-17T17:11:17;23.90;98.20
41447;DHT22;27185;52.040;4.490;2023-08-17T17:14:03;23.80;98.50
41447;DHT22;27185;52.040;4.490;2023-08-17T17:16:49;23.80;98.30
41447;DHT22;27185;52.040;4.490;2023-08-17T17:19:34;23.80;98.30
41447;DHT22;27185;52.040;4.490;2023-08-17T17:22:20;23.70;98.40
41447;DHT22;27185;52.040;4.490;2023-08-17T17:25:06;23.70;98.40
41447;DHT22;27185;52.040;4.490;2023-08-17T17:27:53;23.60;98.50
41447;DHT22;27185;52.040;4.490;2023-08-17T17:30:38;23.60;98.60
41447;DHT22;27185;52.040;4.490;2023-08-17T17:33:24;23.60;98.80